Annie M — W2B8283 — position and weather

sailwx.info

Track history (hours):
 
Tides and Currents Weather Stations Pressure Air Temp Water Temp Dewpoint Dewpoint Depression Visibility Wind Speed Wind Dir Waves Ship Positions

Annie M

Last reported at 2017-Oct-01 19:46 UTC. Time now 2017-Nov-18 06:26 UTC.
Position N 42°37' W 070°34'.
Warning: this ship's position is 47 days out of date.

Type: Pleasure craft. MMSI: 338217706.

Date/timePositionNaut miles runAvg speedWind from/ knotsBaromVisibWave heightAir tempDewpointWater temp
2017-Oct-01 19:46N 42°37' W 070°34'414.9
2017-Oct-01 19:30N 42°40' W 070°30'1 0.8
2017-Oct-01 17:41N 42°40' W 070°28'2 0.4
2017-Oct-01 12:43N 42°38' W 070°28'1 2.3
2017-Oct-01 12:30N 42°38' W 070°29'611.8
2017-Oct-01 12:00N 42°36' W 070°36'1 2.2
2017-Oct-01 11:30N 42°36' W 070°37'2 4.1
2017-Oct-01 10:59N 42°34' W 070°40'1 2.4
2017-Oct-01 10:30N 42°36' W 070°40'  
2017-Sep-24 15:05N 42°37' W 070°41'0 1.3
2017-Sep-24 15:00N 42°37' W 070°41'0 0.2
2017-Sep-24 14:28N 42°37' W 070°41'0 0.1
2017-Sep-24 13:59N 42°37' W 070°41'0 0.0
2017-Sep-24 13:29N 42°37' W 070°41'0 0.0
2017-Sep-24 12:59N 42°37' W 070°41'0 0.0
2017-Sep-24 12:28N 42°37' W 070°41'0 0.0
2017-Sep-24 11:58N 42°37' W 070°41'0 0.0
2017-Sep-24 11:28N 42°37' W 070°41'0 0.0
2017-Sep-24 10:58N 42°37' W 070°41'0 0.0
2017-Sep-24 10:28N 42°37' W 070°41'0 0.0
2017-Sep-24 09:58N 42°37' W 070°41'0 0.0
2017-Sep-24 09:25N 42°37' W 070°41'0 0.0
2017-Sep-24 08:58N 42°37' W 070°41'0 0.0
2017-Sep-24 08:25N 42°37' W 070°41'0 0.0
2017-Sep-24 07:58N 42°37' W 070°41'0 0.0
2017-Sep-24 07:28N 42°37' W 070°41'0 0.0
2017-Sep-24 06:55N 42°37' W 070°41'0 0.0
2017-Sep-24 06:28N 42°37' W 070°41'0 0.0
2017-Sep-24 05:58N 42°37' W 070°41'0 0.0
2017-Sep-24 05:28N 42°37' W 070°41'0 0.0
2017-Sep-24 04:58N 42°37' W 070°41'0 0.0
2017-Sep-24 04:22N 42°37' W 070°41'0 0.0
2017-Sep-24 03:55N 42°37' W 070°41'0 0.0
2017-Sep-24 03:28N 42°37' W 070°41'0 0.0
2017-Sep-24 02:58N 42°37' W 070°41'0 0.0
2017-Sep-24 02:22N 42°37' W 070°41'0 0.0
2017-Sep-24 01:58N 42°37' W 070°41'0 0.0
2017-Sep-24 01:28N 42°37' W 070°41'0 0.0
2017-Sep-24 00:58N 42°37' W 070°41'0 0.0
2017-Sep-24 00:28N 42°37' W 070°41'0 0.0
2017-Sep-23 23:58N 42°37' W 070°41'0 0.0
2017-Sep-23 23:28N 42°37' W 070°41'0 0.0
2017-Sep-23 22:58N 42°37' W 070°41'0 0.0
2017-Sep-23 22:28N 42°37' W 070°41'0 0.0
2017-Sep-23 21:58N 42°37' W 070°41'0 0.0
2017-Sep-23 21:28N 42°37' W 070°41'0 0.0
2017-Sep-23 20:58N 42°37' W 070°41'0 0.0
2017-Sep-23 20:22N 42°37' W 070°41'0 0.0
2017-Sep-23 19:58N 42°37' W 070°41'0 0.0
2017-Sep-22 01:58N 42°37' W 070°41'0 0.0
2017-Sep-22 01:25N 42°37' W 070°41'0 0.0
2017-Sep-22 00:58N 42°37' W 070°41'0 0.0
2017-Sep-22 00:28N 42°37' W 070°41'0 0.0
2017-Sep-21 23:58N 42°37' W 070°41'0 0.0
2017-Sep-21 23:25N 42°37' W 070°41'  
Track history (hours):
 
Tides and Currents Weather Stations Pressure Air Temp Water Temp Dewpoint Dewpoint Depression Visibility Wind Speed Wind Dir Waves Ship Positions

Annie M

Last reported at 2017-Oct-01 19:46 UTC. Time now 2017-Nov-18 06:26 UTC.
Position N 42°37' W 070°34'.
Warning: this ship's position is 47 days out of date.

Type: Pleasure craft. MMSI: 338217706.

Date/timePositionNaut miles runAvg speedWind from/ knotsBaromVisibWave heightAir tempDewpointWater temp
2017-Oct-01 19:46N 42°37' W 070°34'414.9
2017-Oct-01 19:30N 42°40' W 070°30'1 0.8
2017-Oct-01 17:41N 42°40' W 070°28'2 0.4
2017-Oct-01 12:43N 42°38' W 070°28'1 2.3
2017-Oct-01 12:30N 42°38' W 070°29'611.8
2017-Oct-01 12:00N 42°36' W 070°36'1 2.2
2017-Oct-01 11:30N 42°36' W 070°37'2 4.1
2017-Oct-01 10:59N 42°34' W 070°40'1 2.4
2017-Oct-01 10:30N 42°36' W 070°40'  
2017-Sep-24 15:05N 42°37' W 070°41'0 1.3
2017-Sep-24 15:00N 42°37' W 070°41'0 0.2
2017-Sep-24 14:28N 42°37' W 070°41'0 0.1
2017-Sep-24 13:59N 42°37' W 070°41'0 0.0
2017-Sep-24 13:29N 42°37' W 070°41'0 0.0
2017-Sep-24 12:59N 42°37' W 070°41'0 0.0
2017-Sep-24 12:28N 42°37' W 070°41'0 0.0
2017-Sep-24 11:58N 42°37' W 070°41'0 0.0
2017-Sep-24 11:28N 42°37' W 070°41'0 0.0
2017-Sep-24 10:58N 42°37' W 070°41'0 0.0
2017-Sep-24 10:28N 42°37' W 070°41'0 0.0
2017-Sep-24 09:58N 42°37' W 070°41'0 0.0
2017-Sep-24 09:25N 42°37' W 070°41'0 0.0
2017-Sep-24 08:58N 42°37' W 070°41'0 0.0
2017-Sep-24 08:25N 42°37' W 070°41'0 0.0
2017-Sep-24 07:58N 42°37' W 070°41'0 0.0
2017-Sep-24 07:28N 42°37' W 070°41'0 0.0
2017-Sep-24 06:55N 42°37' W 070°41'0 0.0
2017-Sep-24 06:28N 42°37' W 070°41'0 0.0
2017-Sep-24 05:58N 42°37' W 070°41'0 0.0
2017-Sep-24 05:28N 42°37' W 070°41'0 0.0
2017-Sep-24 04:58N 42°37' W 070°41'0 0.0
2017-Sep-24 04:22N 42°37' W 070°41'0 0.0
2017-Sep-24 03:55N 42°37' W 070°41'0 0.0
2017-Sep-24 03:28N 42°37' W 070°41'0 0.0
2017-Sep-24 02:58N 42°37' W 070°41'0 0.0
2017-Sep-24 02:22N 42°37' W 070°41'0 0.0
2017-Sep-24 01:58N 42°37' W 070°41'0 0.0
2017-Sep-24 01:28N 42°37' W 070°41'0 0.0
2017-Sep-24 00:58N 42°37' W 070°41'0 0.0
2017-Sep-24 00:28N 42°37' W 070°41'0 0.0
2017-Sep-23 23:58N 42°37' W 070°41'0 0.0
2017-Sep-23 23:28N 42°37' W 070°41'0 0.0
2017-Sep-23 22:58N 42°37' W 070°41'0 0.0
2017-Sep-23 22:28N 42°37' W 070°41'0 0.0
2017-Sep-23 21:58N 42°37' W 070°41'0 0.0
2017-Sep-23 21:28N 42°37' W 070°41'0 0.0
2017-Sep-23 20:58N 42°37' W 070°41'0 0.0
2017-Sep-23 20:22N 42°37' W 070°41'0 0.0
2017-Sep-23 19:58N 42°37' W 070°41'0 0.0
2017-Sep-22 01:58N 42°37' W 070°41'0 0.0
2017-Sep-22 01:25N 42°37' W 070°41'0 0.0
2017-Sep-22 00:58N 42°37' W 070°41'0 0.0
2017-Sep-22 00:28N 42°37' W 070°41'0 0.0
2017-Sep-21 23:58N 42°37' W 070°41'0 0.0
2017-Sep-21 23:25N 42°37' W 070°41'  

Dump ship's entire track history